| time (UTC) | temp C | wind direction | speed KPH | gust KPH | rain 1hr cm | rain 24hr cm | rain mn cm | humidity % | barometer mb |
| 20260508043030 | 7 | 29 | 4.8 | 8.0 | 0.00 | 1.45 | 0.00 | 93 | 1001.7 |
| 20260508041527 | 7 | 34 | 3.2 | 8.0 | 0.00 | 1.45 | 0.00 | 92 | 1001.8 |
| 20260508040022 | 8 | 11 | 4.8 | 8.0 | 0.00 | 1.45 | 0.00 | 93 | 1001.9 |
| 20260508034519 | 9 | 213 | 3.2 | 4.8 | 0.00 | 1.45 | 0.00 | 94 | 1001.8 |
| 20260508033020 | 9 | 213 | 0.0 | 4.8 | 0.00 | 1.45 | 0.00 | 94 | 1001.8 |
| 20260508031519 | 9 | 197 | 0.0 | 3.2 | 0.00 | 1.45 | 0.00 | 94 | 1001.7 |
| 20260508030016 | 9 | 197 | 3.2 | 9.7 | 0.00 | 1.45 | 1.45 | 94 | 1001.7 |
| 20260508024515 | 9 | 226 | 0.0 | 11.3 | 0.00 | 1.45 | 1.45 | 94 | 1001.9 |
| 20260508023015 | 9 | 244 | 3.2 | 8.0 | 0.00 | 1.45 | 1.45 | 94 | 1001.9 |
| 20260508021511 | 9 | 207 | 3.2 | 9.7 | 0.00 | 1.45 | 1.45 | 94 | 1001.9 |
| 20260508020010 | 9 | 281 | 3.2 | 9.7 | 0.00 | 1.45 | 1.45 | 94 | 1002.0 |
| 20260508014508 | 10 | 287 | 3.2 | 8.0 | 0.00 | 1.45 | 1.45 | 95 | 1002.1 |
| 20260508013005 | 10 | 306 | 1.6 | 4.8 | 0.00 | 1.45 | 1.45 | 94 | 1001.7 |
| 20260508011609 | 10 | 307 | 0.0 | 6.4 | 0.00 | 1.45 | 1.45 | 95 | 1001.7 |
| 20260508010006 | 10 | 346 | 1.6 | 6.4 | 0.00 | 1.45 | 1.45 | 94 | 1001.8 |
| 20260508004503 | 10 | 355 | 0.0 | 0.0 | 0.00 | 1.45 | 1.45 | 94 | 1001.8 |
| 20260508003002 | 10 | 355 | 0.0 | 3.2 | 0.00 | 1.45 | 1.45 | 94 | 1002.1 |
| 20260508001502 | 10 | 355 | 1.6 | 8.0 | 0.00 | 1.45 | 1.45 | 94 | 1001.9 |
| 20260508000001 | 10 | 343 | 0.0 | 4.8 | 0.00 | 1.45 | 1.45 | 95 | 1001.6 |
| 20260507234606 | 10 | 344 | 3.2 | 8.0 | 0.00 | 1.45 | 1.45 | 94 | 1001.1 |
| 20260507233057 | 10 | 302 | 3.2 | 6.4 | 0.00 | 1.45 | 1.45 | 93 | 1001.1 |
| 20260507231601 | 10 | 295 | 1.6 | 4.8 | 0.00 | 1.45 | 1.45 | 93 | 1001.2 |
| 20260507230100 | 10 | 295 | 0.0 | 6.4 | 0.00 | 1.45 | 1.45 | 93 | 1000.9 |
| 20260507224555 | 11 | 296 | 3.2 | 4.8 | 0.00 | 1.45 | 1.45 | 91 | 1000.9 |
| 20260507223056 | 12 | 292 | 3.2 | 6.4 | 0.00 | 1.45 | 1.45 | 93 | 1000.8 |
| 20260507221552 | 12 | 282 | 0.0 | 3.2 | 0.00 | 1.45 | 1.45 | 93 | 1000.9 |
| 20260507220052 | 12 | 283 | 0.0 | 4.8 | 0.00 | 1.45 | 1.45 | 93 | 1000.8 |
| 20260507214555 | 12 | 283 | 0.0 | 6.4 | 0.00 | 1.45 | 1.45 | 94 | 1000.8 |
| 20260507213049 | 12 | 214 | 0.0 | 8.0 | 0.03 | 1.45 | 1.45 | 94 | 1001.1 |
| 20260507211551 | 12 | 188 | 11.3 | 19.3 | 0.08 | 1.45 | 1.45 | 93 | 1000.9 |
| 20260507210050 | 12 | 252 | 4.8 | 19.3 | 0.20 | 1.45 | 1.45 | 93 | 1001.7 |
| 20260507204547 | 12 | 172 | 9.7 | 29.0 | 0.36 | 1.45 | 1.45 | 93 | 1000.6 |
| 20260507203049 | 12 | 226 | 11.3 | 25.7 | 0.43 | 1.42 | 1.42 | 92 | 1000.9 |
| 20260507201541 | 12 | 336 | 4.8 | 12.9 | 0.51 | 1.40 | 1.40 | 91 | 1001.6 |
| 20260507200047 | 12 | 161 | 9.7 | 24.1 | 0.53 | 1.27 | 1.27 | 91 | 1001.7 |
| 20260507194537 | 12 | 163 | 6.4 | 25.7 | 0.51 | 1.12 | 1.12 | 92 | 1002.8 |
| 20260507193035 | 12 | 150 | 14.5 | 27.4 | 0.71 | 1.02 | 1.02 | 91 | 1002.8 |
| 20260507191532 | 13 | 211 | 9.7 | 24.1 | 0.79 | 0.89 | 0.89 | 91 | 1002.8 |
| 20260507190033 | 13 | 159 | 12.9 | 33.8 | 0.71 | 0.71 | 0.71 | 91 | 1002.9 |
| 20260507184531 | 13 | 158 | 9.7 | 29.0 | 0.58 | 0.61 | 0.61 | 90 | 1003.3 |
| 20260507183037 | 14 | 190 | 17.7 | 30.6 | 0.28 | 0.30 | 0.30 | 88 | 1003.4 |
| 20260507181527 | 15 | 215 | 8.0 | 24.1 | 0.05 | 0.05 | 0.05 | 85 | 1003.5 |
| 20260507180036 | 16 | 216 | 22.5 | 49.9 | 0.00 | 0.03 | 0.03 | 79 | 1002.8 |
| 20260507174532 | 16 | 150 | 14.5 | 40.2 | 0.00 | 0.03 | 0.03 | 78 | 1002.5 |
| 20260507173023 | 17 | 126 | 19.3 | 54.7 | 0.00 | 0.03 | 0.03 | 77 | 1002.6 |
| 20260507171522 | 17 | 154 | 17.7 | 54.7 | 0.00 | 0.03 | 0.03 | 78 | 1003.0 |
| 20260507170022 | 17 | 194 | 25.7 | 54.7 | 0.00 | 0.03 | 0.03 | 76 | 1002.9 |
| 20260507164520 | 17 | 205 | 20.9 | 46.7 | 0.00 | 0.03 | 0.03 | 77 | 1002.8 |
| 20260507163018 | 17 | 199 | 24.1 | 59.5 | 0.00 | 0.03 | 0.03 | 76 | 1003.5 |
| 20260507161528 | 17 | 120 | 20.9 | 62.8 | 0.00 | 0.03 | 0.03 | 75 | 1003.9 |
| 20260507160022 | 17 | 144 | 27.4 | 62.8 | 0.00 | 0.03 | 0.03 | 77 | 1004.3 |
| 20260507154516 | 17 | 150 | 30.6 | 70.8 | 0.00 | 0.03 | 0.03 | 76 | 1004.5 |
| 20260507153013 | 17 | 207 | 29.0 | 57.9 | 0.00 | 0.03 | 0.03 | 75 | 1004.6 |
| 20260507151517 | 17 | 178 | 17.7 | 48.3 | 0.00 | 0.03 | 0.03 | 76 | 1005.0 |
| 20260507150011 | 17 | 157 | 35.4 | 64.4 | 0.00 | 0.03 | 0.03 | 76 | 1005.5 |
| 20260507144506 | 17 | 176 | 27.4 | 53.1 | 0.00 | 0.03 | 0.03 | 76 | 1005.9 |
| 20260507143006 | 17 | 175 | 16.1 | 49.9 | 0.00 | 0.03 | 0.03 | 77 | 1006.0 |
| 20260507141505 | 17 | 163 | 27.4 | 61.2 | 0.00 | 0.03 | 0.03 | 78 | 1006.3 |
| 20260507140003 | 17 | 132 | 24.1 | 51.5 | 0.00 | 0.03 | 0.03 | 76 | 1006.2 |
| 20260507134507 | 17 | 159 | 29.0 | 43.5 | 0.00 | 0.03 | 0.03 | 76 | 1006.3 |
| 20260507133102 | 17 | 188 | 17.7 | 53.1 | 0.00 | 0.03 | 0.03 | 76 | 1006.4 |
| 20260507131622 | 17 | 178 | 22.5 | 46.7 | 0.03 | 0.03 | 0.03 | 78 | 1006.7 |
| 20260507130103 | 17 | 211 | 22.5 | 40.2 | 0.03 | 0.03 | 0.03 | 78 | 1006.6 |
| 20260507124555 | 16 | 213 | 24.1 | 48.3 | 0.03 | 0.03 | 0.03 | 80 | 1007.1 |
| 20260507123049 | 16 | 140 | 16.1 | 49.9 | 0.03 | 0.03 | 0.03 | 82 | 1007.0 |
| 20260507121547 | 15 | 188 | 20.9 | 40.2 | 0.00 | 0.00 | 0.00 | 84 | 1007.1 |
| 20260507120045 | 15 | 191 | 14.5 | 51.5 | 0.00 | 0.00 | 0.00 | 85 | 1008.1 |
| 20260507114643 | 16 | 173 | 32.2 | 51.5 | 0.00 | 0.00 | 0.00 | 80 | 1008.4 |
| 20260507113042 | 15 | 161 | 22.5 | 45.1 | 0.00 | 0.00 | 0.00 | 81 | 1008.5 |
| 20260507111541 | 15 | 140 | 25.7 | 41.8 | 0.00 | 0.00 | 0.00 | 84 | 1009.1 |
| 20260507110143 | 15 | 156 | 11.3 | 27.4 | 0.00 | 0.00 | 0.00 | 84 | 1009.1 |
| 20260507104540 | 14 | 223 | 11.3 | 37.0 | 0.00 | 0.00 | 0.00 | 85 | 1009.0 |
| 20260507103038 | 13 | 171 | 9.7 | 33.8 | 0.00 | 0.00 | 0.00 | 85 | 1009.7 |
| 20260507101542 | 13 | 134 | 16.1 | 40.2 | 0.00 | 0.00 | 0.00 | 85 | 1009.1 |
| 20260507100038 | 13 | 174 | 16.1 | 37.0 | 0.00 | 0.00 | 0.00 | 85 | 1009.8 |
| 20260507094533 | 13 | 138 | 14.5 | 38.6 | 0.00 | 0.00 | 0.00 | 86 | 1010.0 |
| 20260507093031 | 13 | 159 | 8.0 | 25.7 | 0.00 | 0.00 | 0.00 | 87 | 1010.8 |
| 20260507091532 | 13 | 179 | 8.0 | 24.1 | 0.00 | 0.00 | 0.00 | 86 | 1010.9 |
| 20260507090037 | 13 | 144 | 9.7 | 30.6 | 0.00 | 0.00 | 0.00 | 85 | 1010.5 |
| 20260507084534 | 13 | 131 | 16.1 | 33.8 | 0.00 | 0.00 | 0.00 | 85 | 1009.7 |
| 20260507083022 | 13 | 184 | 12.9 | 20.9 | 0.00 | 0.00 | 0.00 | 85 | 1010.3 |
| 20260507081520 | 14 | 171 | 11.3 | 35.4 | 0.00 | 0.00 | 0.00 | 84 | 1010.7 |
| 20260507080016 | 15 | 190 | 9.7 | 30.6 | 0.00 | 0.00 | 0.00 | 83 | 1011.0 |
| 20260507074614 | 15 | 169 | 16.1 | 40.2 | 0.00 | 0.00 | 0.00 | 82 | 1010.9 |
| 20260507073011 | 15 | 134 | 11.3 | 27.4 | 0.00 | 0.00 | 0.00 | 81 | 1011.1 |
| 20260507071510 | 15 | 210 | 8.0 | 25.7 | 0.00 | 0.00 | 0.00 | 80 | 1011.9 |
| 20260507070013 | 15 | 205 | 17.7 | 30.6 | 0.00 | 0.00 | 0.00 | 80 | 1011.3 |
| 20260507064506 | 15 | 198 | 8.0 | 33.8 | 0.00 | 0.00 | 0.00 | 79 | 1011.3 |
| 20260507063005 | 15 | 175 | 16.1 | 37.0 | 0.00 | 0.00 | 0.00 | 78 | 1011.3 |
| 20260507061502 | 15 | 163 | 11.3 | 35.4 | 0.00 | 0.00 | 0.00 | 76 | 1012.0 |
| 20260507060111 | 15 | 247 | 8.0 | 19.3 | 0.00 | 0.00 | 0.00 | 75 | 1012.5 |
| 20260507054559 | 15 | 218 | 9.7 | 32.2 | 0.00 | 0.00 | 0.00 | 73 | 1012.3 |
| 20260507053055 | 15 | 163 | 12.9 | 24.1 | 0.00 | 0.00 | 0.00 | 70 | 1012.5 |
| 20260507051551 | 15 | 148 | 11.3 | 25.7 | 0.00 | 0.00 | 0.00 | 68 | 1012.8 |
| 20260507050048 | 15 | 279 | 4.8 | 17.7 | 0.00 | 0.00 | 0.00 | 71 | 1013.1 |
| 20260507044548 | 15 | 171 | 4.8 | 16.1 | 0.00 | 0.00 | 0.00 | 72 | 1013.4 |